Time;durP1;ratioP1;P1;durP2;ratioP2;P2;SDS_P1;SDS_P2;PMS_P1;PMS_P2;Temp;Humidity;BMP_temperature;BMP_pressure;BME280_temperature;BME280_humidity;BME280_pressure;Samples;Min_cycle;Max_cycle;Signal;HPM_P1;HPM_P2
2022/08/21 00:02:18;;;;;;;;;6.25;6.00;;;;;19.46;64.05;101204.97;5086197;27;46337;-85
2022/08/21 00:04:44;;;;;;;;;8.50;7.50;;;;;19.26;64.40;101179.09;5092152;28;45142;-90
2022/08/21 00:07:09;;;;;;;;;7.75;7.25;;;;;19.37;64.37;101195.16;5089810;28;44997;-87
2022/08/21 00:09:35;;;;;;;;;8.00;6.50;;;;;19.23;64.78;101168.41;5090502;27;44987;-89
2022/08/21 00:12:01;;;;;;;;;5.75;5.50;;;;;19.12;64.64;101146.16;5085558;27;45703;-93
2022/08/21 00:14:26;;;;;;;;;8.00;7.00;;;;;19.23;64.97;101164.84;5087698;27;45365;-90
2022/08/21 00:16:52;;;;;;;;;6.50;6.00;;;;;19.04;64.35;101138.09;5092110;27;44855;-88
2022/08/21 00:19:17;;;;;;;;;6.25;6.25;;;;;19.17;64.77;101168.38;5106373;27;45224;-87
2022/08/21 00:21:43;;;;;;;;;8.25;7.75;;;;;19.11;65.08;101160.31;5086752;27;45752;-87
2022/08/21 00:24:08;;;;;;;;;8.00;6.25;;;;;19.19;65.29;101173.72;5091246;27;55697;-92
2022/08/21 00:26:34;;;;;;;;;7.00;6.25;;;;;19.01;65.16;101139.84;5087623;27;44902;-87
2022/08/21 00:28:59;;;;;;;;;6.50;6.50;;;;;19.18;65.09;101155.94;5090845;27;45463;-90
2022/08/21 00:31:25;;;;;;;;;9.25;8.00;;;;;19.08;65.26;101149.66;5089278;27;45546;-91
2022/08/21 00:33:51;;;;;;;;;8.00;7.00;;;;;19.09;65.54;101154.09;5091844;27;45066;-91
2022/08/21 00:36:16;;;;;;;;;9.50;8.25;;;;;19.19;65.70;101173.72;5106985;27;45103;-91
2022/08/21 00:38:42;;;;;;;;;7.75;7.25;;;;;19.10;65.73;101160.31;5088487;27;45466;-91
2022/08/21 00:41:10;;;;;;;;;7.00;7.00;;;;;19.21;65.94;101179.91;5099995;27;47366;-89
2022/08/21 00:43:37;;;;;;;;;5.75;5.00;;;;;19.03;65.83;101152.28;5125828;27;45702;-93
2022/08/21 00:46:05;;;;;;;;;6.25;6.00;;;;;19.05;65.90;101162.94;5085349;27;45309;-91
2022/08/21 00:48:31;;;;;;;;;6.25;6.25;;;;;19.04;65.81;101169.16;5108192;27;44947;-92
2022/08/21 00:51:22;;;;;;;;;7.50;7.25;;;;;19.05;66.07;101166.50;5090024;27;46076;-94
2022/08/21 00:53:52;;;;;;;;;7.75;7.75;;;;;19.00;66.16;101162.91;5106449;27;45928;-93
2022/08/21 00:56:20;;;;;;;;;5.75;5.75;;;;;19.02;65.98;101165.63;5085102;27;45274;-93
2022/08/21 00:58:47;;;;;;;;;10.50;8.25;;;;;18.88;66.02;101154.84;5089450;27;45286;-92
2022/08/21 01:01:13;;;;;;;;;7.50;6.50;;;;;18.87;66.26;101153.09;5087606;27;45323;-89
2022/08/21 01:03:38;;;;;;;;;7.75;7.00;;;;;18.88;66.24;101146.88;5089478;27;45144;-90
2022/08/21 01:06:05;;;;;;;;;6.50;6.50;;;;;18.98;66.59;101163.81;5107737;27;45608;-94
2022/08/21 01:08:33;;;;;;;;;7.25;7.25;;;;;19.04;66.04;101164.72;5111002;27;45116;-89
2022/08/21 01:10:59;;;;;;;;;8.75;8.50;;;;;18.85;66.34;101129.97;5107572;27;47733;-92
2022/08/21 01:13:27;;;;;;;;;8.50;7.50;;;;;19.05;66.19;101166.50;5111571;27;45461;-94
2022/08/21 01:15:54;;;;;;;;;9.50;7.50;;;;;19.02;66.59;101166.50;5091779;28;45244;-92
2022/08/21 01:18:20;;;;;;;;;7.00;7.00;;;;;18.95;66.27;101180.66;5090766;27;45753;-92
2022/08/21 01:21:16;;;;;;;;;8.25;8.00;;;;;18.89;66.46;101180.59;5093751;27;47008;-91
2022/08/21 01:23:44;;;;;;;;;7.00;7.00;;;;;18.84;66.42;101177.03;5090679;28;45280;-93
2022/08/21 01:26:12;;;;;;;;;8.00;7.75;;;;;18.76;66.97;101173.41;5088531;28;45276;-91
2022/08/21 01:28:48;;;;;;;;;8.75;8.75;;;;;18.73;67.04;101176.06;5092626;27;45203;-92
2022/08/21 01:31:14;;;;;;;;;11.00;9.00;;;;;18.70;66.68;101160.94;5089744;27;46362;-92
2022/08/21 01:33:40;;;;;;;;;7.50;7.50;;;;;18.71;66.44;101176.03;5108537;27;45387;-91
2022/08/21 01:36:06;;;;;;;;;8.50;8.50;;;;;18.47;66.97;101138.50;5092939;27;45451;-84
2022/08/21 01:38:32;;;;;;;;;6.75;6.75;;;;;18.63;66.96;101176.81;5091984;27;45285;-93
2022/08/21 01:40:57;;;;;;;;;7.25;7.00;;;;;18.51;67.29;101172.25;5100991;27;46268;-94
2022/08/21 01:43:23;;;;;;;;;8.75;7.75;;;;;18.67;68.17;101195.50;5107692;27;45366;-91
2022/08/21 01:45:48;;;;;;;;;5.25;5.25;;;;;18.63;67.18;101183.03;5094080;27;44992;-93
2022/08/21 01:48:13;;;;;;;;;7.67;7.00;;;;;18.26;67.63;101120.59;5091152;27;48660;-87
2022/08/21 01:50:39;;;;;;;;;9.75;8.75;;;;;18.47;67.36;101160.72;5093219;27;45596;-89
2022/08/21 01:53:04;;;;;;;;;6.00;5.50;;;;;18.44;67.96;101151.81;5093942;28;45124;-89
2022/08/21 01:55:30;;;;;;;;;11.50;7.00;;;;;18.53;67.36;101171.41;5089216;27;45016;-86
2022/08/21 01:57:57;;;;;;;;;9.00;8.00;;;;;18.49;68.08;101166.94;5094416;28;45189;-88
2022/08/21 02:00:23;;;;;;;;;8.00;7.00;;;;;18.41;68.11;101165.06;5110446;27;47272;-86
2022/08/21 02:02:49;;;;;;;;;5.75;5.75;;;;;18.31;67.57;101145.47;5110392;27;44908;-93
2022/08/21 02:05:15;;;;;;;;;6.50;6.50;;;;;18.46;68.19;101181.97;5107994;27;45103;-87
2022/08/21 02:07:48;;;;;;;;;8.00;7.00;;;;;18.41;68.24;101181.03;5094371;27;45195;-91
2022/08/21 02:10:18;;;;;;;;;7.25;7.25;;;;;18.27;68.51;101168.53;5091313;27;45888;-89
2022/08/21 02:12:43;;;;;;;;;7.00;7.00;;;;;18.28;68.73;101167.63;5090195;27;45240;-92
2022/08/21 02:15:09;;;;;;;;;8.25;6.75;;;;;18.23;68.53;101161.38;5089390;28;45595;-90
2022/08/21 02:17:55;;;;;;;;;6.25;6.25;;;;;18.31;68.79;101178.28;5092295;27;45121;-90
2022/08/21 02:20:26;;;;;;;;;8.25;7.75;;;;;18.20;68.88;101160.44;5104792;27;48002;-85
2022/08/21 02:22:52;;;;;;;;;7.25;7.00;;;;;18.28;69.15;101166.75;5107271;27;45468;-89
2022/08/21 02:25:19;;;;;;;;;6.75;6.50;;;;;18.28;69.10;101169.41;5083848;27;45636;-89
2022/08/21 02:27:47;;;;;;;;;9.25;8.50;;;;;17.83;68.74;101097.97;5089125;27;45742;-91
2022/08/21 02:30:23;;;;;;;;;8.25;8.25;;;;;18.22;69.45;101174.63;5106134;27;47543;-91
2022/08/21 02:32:48;;;;;;;;;8.50;6.75;;;;;17.99;69.64;101134.53;5090557;27;45258;-85
2022/08/21 02:35:14;;;;;;;;;9.33;8.67;;;;;17.84;69.31;101110.44;5104572;27;45043;-88
2022/08/21 02:37:47;;;;;;;;;9.75;7.00;;;;;18.07;69.51;101151.44;5089505;27;45196;-91
2022/08/21 02:40:14;;;;;;;;;6.25;6.25;;;;;18.09;69.54;101157.69;5108818;27;47212;-88
2022/08/21 02:42:39;;;;;;;;;9.50;9.00;;;;;18.08;69.71;101152.31;5088227;27;45343;-90
2022/08/21 02:45:06;;;;;;;;;8.00;7.00;;;;;18.16;69.63;101170.16;5090381;27;45420;-89
2022/08/21 02:47:32;;;;;;;;;7.50;6.75;;;;;18.20;69.57;101171.97;5094036;27;45001;-86
2022/08/21 02:49:57;;;;;;;;;10.50;9.75;;;;;18.04;69.48;101154.09;5089770;27;45790;-92
2022/08/21 02:52:23;;;;;;;;;9.50;9.00;;;;;17.96;69.03;101146.00;5109365;27;45065;-92
2022/08/21 02:54:49;;;;;;;;;6.50;6.00;;;;;17.99;69.60;101154.03;5107144;27;44988;-93
2022/08/21 02:57:14;;;;;;;;;7.50;7.50;;;;;17.77;69.49;101122.75;5087162;28;45334;-91
2022/08/21 02:59:40;;;;;;;;;7.75;6.25;;;;;17.85;69.99;101138.78;5109545;27;47598;-91
2022/08/21 03:02:06;;;;;;;;;9.25;8.00;;;;;17.83;70.13;101136.09;5088142;27;45259;-92
2022/08/21 03:04:31;;;;;;;;;8.00;7.50;;;;;17.89;69.99;101144.16;5090942;27;45276;-93
2022/08/21 03:06:57;;;;;;;;;8.75;7.25;;;;;17.98;69.69;101165.56;5089530;27;45047;-92
2022/08/21 03:09:23;;;;;;;;;9.50;9.25;;;;;17.98;70.00;101170.88;5106446;27;48559;-92
2022/08/21 03:11:51;;;;;;;;;7.25;7.25;;;;;17.95;70.00;101160.19;5091026;27;45036;-93
2022/08/21 03:14:17;;;;;;;;;9.25;7.00;;;;;18.00;69.74;101174.44;5090418;27;45040;-91
2022/08/21 03:16:42;;;;;;;;;7.50;7.50;;;;;17.88;70.29;101157.44;5083378;28;44975;-93
2022/08/21 03:19:08;;;;;;;;;9.25;6.75;;;;;17.79;70.04;101147.59;5071265;28;45708;-91
2022/08/21 03:21:33;;;;;;;;;7.00;6.75;;;;;17.74;70.52;101136.91;5067828;28;45343;-92
2022/08/21 03:23:58;;;;;;;;;7.75;7.50;;;;;17.67;70.09;101118.16;5071913;28;45174;-92
2022/08/21 03:26:24;;;;;;;;;9.25;9.00;;;;;17.73;70.02;101123.56;5070475;28;45124;-94
2022/08/21 03:28:50;;;;;;;;;8.25;7.75;;;;;17.87;70.28;101137.91;5069590;28;46103;-91
2022/08/21 03:31:16;;;;;;;;;9.00;9.00;;;;;18.07;69.95;101158.53;5072556;28;45338;-90
2022/08/21 03:33:42;;;;;;;;;8.00;7.50;;;;;17.77;69.75;101120.09;5071495;28;45060;-92
2022/08/21 03:36:08;;;;;;;;;8.00;7.25;;;;;17.96;69.55;101148.66;5066325;28;50552;-92
2022/08/21 03:38:35;;;;;;;;;8.75;8.00;;;;;17.87;70.03;101129.06;5068881;28;45662;-92
2022/08/21 03:41:01;;;;;;;;;10.25;10.25;;;;;17.95;69.91;101149.53;5066497;28;45681;-86
2022/08/21 03:43:27;;;;;;;;;9.75;9.00;;;;;17.77;70.49;101128.94;5068633;28;45484;-90
2022/08/21 03:45:52;;;;;;;;;9.00;9.00;;;;;17.67;69.97;101103.09;5066203;28;45373;-88
2022/08/21 03:48:18;;;;;;;;;10.75;7.75;;;;;17.70;70.23;101116.44;5066632;28;48218;-91
2022/08/21 03:50:46;;;;;;;;;9.50;9.00;;;;;17.83;70.21;101136.09;5071077;28;45013;-87
2022/08/21 03:53:13;;;;;;;;;8.25;6.25;;;;;17.80;70.02;101133.44;5070131;28;44933;-87
2022/08/21 03:55:38;;;;;;;;;7.25;7.25;;;;;17.66;70.37;101119.94;5068566;28;44930;-90
2022/08/21 03:58:03;;;;;;;;;8.00;8.00;;;;;17.62;70.95;101110.13;5069970;28;50761;-87
2022/08/21 04:00:29;;;;;;;;;10.00;9.25;;;;;17.44;71.22;101084.25;5069589;28;45150;-92
2022/08/21 04:02:55;;;;;;;;;9.00;8.50;;;;;17.53;70.96;101105.59;5068559;28;45066;-91
2022/08/21 04:05:26;;;;;;;;;8.25;8.00;;;;;17.62;70.92;101110.13;5066227;28;45346;-89
2022/08/21 04:08:01;;;;;;;;;7.50;7.50;;;;;17.58;71.36;101102.09;5088611;28;46065;-89
2022/08/21 04:10:30;;;;;;;;;9.00;8.25;;;;;17.75;70.91;101141.34;5090706;27;45758;-93
2022/08/21 04:12:56;;;;;;;;;8.75;8.75;;;;;17.58;70.92;101096.78;5089171;28;45417;-90
2022/08/21 04:15:23;;;;;;;;;7.50;6.50;;;;;17.59;70.56;101090.63;5105704;27;45482;-92
2022/08/21 04:17:49;;;;;;;;;9.00;9.00;;;;;17.85;70.52;101123.72;5103350;27;47356;-87
2022/08/21 04:20:16;;;;;;;;;10.00;9.25;;;;;17.62;70.30;101088.88;5089122;27;45353;-90
2022/08/21 04:22:42;;;;;;;;;9.50;8.50;;;;;17.63;70.88;101093.31;5088651;28;44927;-88
2022/08/21 04:25:08;;;;;;;;;7.25;7.25;;;;;17.68;70.76;101102.22;5085611;27;45420;-92
2022/08/21 04:27:34;;;;;;;;;8.75;8.50;;;;;17.62;70.60;101093.28;5088375;28;46473;-91
2022/08/21 04:30:00;;;;;;;;;7.75;6.50;;;;;17.84;71.13;101148.53;5086244;27;45119;-90
2022/08/21 04:32:26;;;;;;;;;7.25;7.25;;;;;17.53;70.93;101107.38;5104174;27;45086;-93
2022/08/21 04:35:01;;;;;;;;;8.50;8.25;;;;;17.69;71.19;101137.69;5087422;27;45039;-89
2022/08/21 04:37:26;;;;;;;;;8.25;7.25;;;;;17.72;70.61;101143.03;5082506;27;46292;-91
2022/08/21 04:39:52;;;;;;;;;8.75;8.25;;;;;17.79;71.00;101147.59;5086044;27;45018;-89
2022/08/21 04:42:17;;;;;;;;;9.00;7.75;;;;;17.62;70.32;101127.84;5099910;27;45549;-88
2022/08/21 04:44:43;;;;;;;;;8.75;8.50;;;;;17.56;71.15;101120.69;5087977;28;44961;-89
2022/08/21 04:47:08;;;;;;;;;8.50;8.50;;;;;17.51;70.77;101130.38;5086378;27;45641;-91
2022/08/21 04:49:34;;;;;;;;;9.00;9.00;;;;;17.54;71.13;101133.09;5089042;27;45469;-90
2022/08/21 04:52:00;;;;;;;;;9.25;9.00;;;;;17.45;71.34;101128.53;5106128;27;45001;-91
2022/08/21 04:54:25;;;;;;;;;9.00;9.00;;;;;17.31;71.52;101108.88;5092633;27;45193;-92
2022/08/21 04:56:59;;;;;;;;;9.25;8.75;;;;;17.54;71.65;101149.03;5086326;27;45563;-89
2022/08/21 04:59:32;;;;;;;;;7.00;7.00;;;;;17.40;71.44;101126.72;5092138;28;45114;-88
2022/08/21 05:02:00;;;;;;;;;9.00;8.00;;;;;17.33;71.35;101125.72;5085450;28;45917;-89
2022/08/21 05:04:30;;;;;;;;;13.00;9.25;;;;;17.36;72.08;101140.81;5090038;28;45004;-92
2022/08/21 05:07:00;;;;;;;;;8.25;7.75;;;;;17.49;72.26;101162.25;5088104;27;46060;-92
2022/08/21 05:09:25;;;;;;;;;10.75;10.25;;;;;17.39;72.07;101143.50;5086210;28;45303;-87
2022/08/21 05:11:52;;;;;;;;;8.25;8.25;;;;;17.47;72.10;101166.66;5082225;27;45434;-86
2022/08/21 05:14:19;;;;;;;;;7.25;7.25;;;;;17.43;72.55;101156.84;5103341;27;45261;-90
2022/08/21 05:16:45;;;;;;;;;10.75;9.00;;;;;17.50;72.63;101160.50;5087693;27;45259;-90
2022/08/21 05:19:11;;;;;;;;;9.00;8.75;;;;;17.51;72.00;101154.31;5089174;27;45142;-91
2022/08/21 05:21:40;;;;;;;;;10.75;9.00;;;;;17.39;72.30;101132.88;5086770;27;45250;-92
2022/08/21 05:24:06;;;;;;;;;8.50;8.00;;;;;17.40;72.61;101132.91;5091547;27;45162;-90
2022/08/21 05:26:31;;;;;;;;;9.75;9.50;;;;;17.27;72.34;101118.56;5082040;27;45763;-92
2022/08/21 05:28:56;;;;;;;;;10.75;10.00;;;;;17.34;72.54;101119.56;5102416;27;45030;-88
2022/08/21 05:31:22;;;;;;;;;8.00;8.00;;;;;17.28;72.89;101106.16;5088614;27;44939;-89
2022/08/21 05:33:47;;;;;;;;;8.00;7.25;;;;;17.26;72.78;101103.50;5100697;27;45173;-91
2022/08/21 05:36:13;;;;;;;;;7.75;7.00;;;;;17.44;72.76;101129.44;5103769;27;45916;-90
2022/08/21 05:38:38;;;;;;;;;9.25;8.25;;;;;17.49;72.57;101134.81;5104537;27;45015;-92
2022/08/21 05:41:04;;;;;;;;;10.00;10.00;;;;;17.49;72.50;101132.16;5099006;27;45225;-91
2022/08/21 05:43:29;;;;;;;;;8.25;8.25;;;;;17.49;73.14;101127.72;5091501;27;44914;-89
2022/08/21 05:45:55;;;;;;;;;7.25;7.25;;;;;17.54;72.62;101133.97;5087142;27;45604;-91
2022/08/21 05:48:23;;;;;;;;;9.25;8.50;;;;;17.70;72.74;101161.63;5089301;27;44888;-90
2022/08/21 05:50:51;;;;;;;;;9.75;9.50;;;;;17.54;72.59;101128.66;5087670;27;45562;-92
2022/08/21 05:53:18;;;;;;;;;7.00;7.00;;;;;17.63;72.80;101135.84;5089825;27;45349;-92
2022/08/21 05:55:44;;;;;;;;;7.75;7.00;;;;;17.72;72.57;101143.91;5090465;27;45828;-91
2022/08/21 05:58:11;;;;;;;;;7.75;7.75;;;;;17.69;72.61;101130.63;5087159;28;45762;-91
2022/08/21 06:00:36;;;;;;;;;8.50;8.25;;;;;17.75;72.63;101135.13;5103997;27;45293;-88
2022/08/21 06:03:02;;;;;;;;;8.75;8.75;;;;;17.99;72.57;101163.78;5084927;28;45158;-86
2022/08/21 06:05:28;;;;;;;;;8.25;8.00;;;;;17.98;72.44;101160.22;5087401;28;45436;-90
2022/08/21 06:07:53;;;;;;;;;10.00;8.75;;;;;17.91;72.22;101131.78;5106662;27;45105;-86
2022/08/21 06:10:19;;;;;;;;;10.50;10.00;;;;;18.12;72.46;101151.47;5088094;27;45028;-87
2022/08/21 06:12:44;;;;;;;;;10.00;9.75;;;;;18.15;71.93;101143.53;5088855;27;45403;-91
2022/08/21 06:15:10;;;;;;;;;12.25;11.00;;;;;18.32;72.22;101160.56;5091476;27;45872;-88
2022/08/21 06:17:36;;;;;;;;;13.50;12.75;;;;;18.19;71.44;101135.59;5120738;27;45489;-89
2022/08/21 06:20:01;;;;;;;;;9.75;9.25;;;;;18.41;71.16;101160.63;5107060;27;53115;-91
2022/08/21 06:22:27;;;;;;;;;7.00;6.50;;;;;18.36;71.29;101145.50;5101045;27;45343;-91
2022/08/21 06:24:52;;;;;;;;;12.25;10.50;;;;;18.42;70.99;101143.81;5085554;27;45425;-91
2022/08/21 06:27:17;;;;;;;;;10.00;9.00;;;;;18.61;70.82;101155.50;5087137;27;45711;-91
2022/08/21 06:29:44;;;;;;;;;10.25;10.25;;;;;18.61;71.61;101149.28;5091636;27;45213;-86
2022/08/21 06:32:11;;;;;;;;;11.00;7.25;;;;;18.40;71.26;101091.44;5088801;27;44996;-93
2022/08/21 06:34:38;;;;;;;;;8.25;7.75;;;;;18.78;71.06;101148.56;5090639;28;45732;-91
2022/08/21 06:37:04;;;;;;;;;9.00;7.25;;;;;18.84;71.38;101138.84;5085424;27;45874;-92
2022/08/21 06:39:29;;;;;;;;;9.75;9.25;;;;;18.78;71.11;101118.38;5109175;27;45174;-92
2022/08/21 06:41:55;;;;;;;;;9.50;9.50;;;;;19.04;70.89;101148.75;5082592;27;45638;-91
2022/08/21 06:44:20;;;;;;;;;6.25;4.75;;;;;19.12;70.78;101135.47;5089010;27;45531;-92
2022/08/21 06:46:45;;;;;;;;;8.75;8.75;;;;;18.96;70.65;101078.53;5091669;27;45229;-90
2022/08/21 06:49:11;;;;;;;;;8.50;8.50;;;;;19.30;70.01;101116.91;5103613;27;45071;-91
2022/08/21 06:51:36;;;;;;;;;10.00;8.75;;;;;19.30;69.96;101097.34;5091461;27;45330;-92
2022/08/21 06:54:01;;;;;;;;;9.33;8.67;;;;;19.44;69.70;101110.75;5088287;27;56934;-92
2022/08/21 06:56:27;;;;;;;;;8.25;8.00;;;;;19.38;70.33;101084.06;5088576;27;45069;-91
2022/08/21 06:58:52;;;;;;;;;9.25;9.25;;;;;19.66;69.47;101111.78;5089400;27;45267;-91
2022/08/21 07:01:21;;;;;;;;;9.00;8.50;;;;;19.41;69.20;101060.06;5100782;27;45041;-92
2022/08/21 07:03:47;;;;;;;;;8.25;8.00;;;;;19.70;69.30;101106.44;5089236;27;45580;-91
2022/08/21 07:06:12;;;;;;;;;7.75;7.00;;;;;19.78;69.29;101099.34;5082245;28;45328;-92
2022/08/21 07:08:38;;;;;;;;;11.50;9.00;;;;;19.88;69.21;101118.03;5090927;27;45003;-88
2022/08/21 07:11:10;;;;;;;;;8.75;8.00;;;;;19.77;69.64;101094.03;5087840;27;45440;-92
2022/08/21 07:13:36;;;;;;;;;7.50;7.50;;;;;19.78;68.80;101087.78;5090237;27;45960;-91
2022/08/21 07:16:02;;;;;;;;;9.25;7.75;;;;;19.98;68.52;101110.06;5093354;27;45069;-92
2022/08/21 07:18:27;;;;;;;;;7.25;6.50;;;;;19.99;68.00;101102.94;5105023;27;45365;-91
2022/08/21 07:20:52;;;;;;;;;9.75;8.50;;;;;20.05;68.19;101117.22;5088228;27;45224;-91
2022/08/21 07:23:26;;;;;;;;;8.00;6.75;;;;;20.07;68.32;101118.09;5106620;27;46328;-91
2022/08/21 07:25:52;;;;;;;;;8.50;8.50;;;;;19.88;68.04;101086.91;5086396;27;45275;-91
2022/08/21 07:28:17;;;;;;;;;8.00;7.25;;;;;20.10;68.20;101117.22;5109516;27;45051;-93
2022/08/21 07:30:42;;;;;;;;;8.00;7.00;;;;;20.08;68.41;101106.53;5107356;27;45024;-92
2022/08/21 07:33:08;;;;;;;;;7.75;7.00;;;;;20.26;67.52;101107.44;5085263;27;45749;-92
2022/08/21 07:35:34;;;;;;;;;6.00;6.00;;;;;20.29;68.07;101104.75;5105379;27;45686;-88
2022/08/21 07:37:59;;;;;;;;;6.00;5.25;;;;;20.31;68.06;101089.66;5091006;27;45002;-92
2022/08/21 07:40:25;;;;;;;;;8.75;8.75;;;;;20.29;67.51;101072.72;5087064;27;44912;-92
2022/08/21 07:42:54;;;;;;;;;7.75;6.75;;;;;20.56;67.36;101096.78;5090749;28;46596;-90
2022/08/21 07:45:21;;;;;;;;;9.75;7.75;;;;;20.50;67.73;101082.56;5083017;27;45946;-91
2022/08/21 07:47:48;;;;;;;;;9.00;7.50;;;;;20.81;67.32;101123.47;5108805;27;44916;-90
2022/08/21 07:50:15;;;;;;;;;8.25;7.25;;;;;20.84;66.07;101116.34;5089901;27;45120;-93
2022/08/21 07:52:42;;;;;;;;;7.00;7.00;;;;;20.97;66.68;101116.31;5104603;27;46152;-92
2022/08/21 07:55:10;;;;;;;;;9.00;8.00;;;;;20.95;65.83;101102.09;5106957;27;45608;-93
2022/08/21 07:57:36;;;;;;;;;9.25;7.75;;;;;21.17;65.60;101121.59;5088365;27;45285;-88
2022/08/21 08:00:07;;;;;;;;;9.25;8.00;;;;;21.17;65.47;101097.53;5089969;27;45015;-91
2022/08/21 08:02:33;;;;;;;;;8.50;8.00;;;;;21.23;65.07;101078.81;5089048;28;46112;-88
2022/08/21 08:05:06;;;;;;;;;7.00;7.00;;;;;21.45;64.79;101099.25;5093014;27;44989;-92
2022/08/21 08:07:31;;;;;;;;;6.50;6.00;;;;;21.66;64.97;101106.28;5106784;27;44984;-93
2022/08/21 08:09:58;;;;;;;;;8.25;7.50;;;;;21.71;64.83;101091.09;5108757;27;45324;-91
2022/08/21 08:12:28;;;;;;;;;7.50;7.50;;;;;21.80;64.11;101084.81;5089765;27;45357;-93
2022/08/21 08:14:54;;;;;;;;;8.75;7.75;;;;;21.91;63.67;101077.59;5088807;27;46364;-90
2022/08/21 08:17:23;;;;;;;;;6.00;5.50;;;;;21.97;64.36;101064.19;5085670;27;45270;-93
2022/08/21 08:19:49;;;;;;;;;7.25;7.00;;;;;22.14;63.94;101077.47;5092372;28;45210;-91
2022/08/21 08:22:16;;;;;;;;;5.50;5.25;;;;;22.13;61.74;101057.84;5085327;28;46035;-91
2022/08/21 08:24:42;;;;;;;;;7.25;6.50;;;;;22.26;62.04;101076.47;5106147;27;45220;-91
2022/08/21 08:27:08;;;;;;;;;9.75;7.50;;;;;22.38;61.87;101085.31;5082462;27;45584;-91
2022/08/21 08:29:33;;;;;;;;;8.25;8.00;;;;;22.40;62.62;101067.44;5106240;27;45013;-89
2022/08/21 08:31:59;;;;;;;;;7.50;7.50;;;;;22.56;62.65;101078.91;5089808;27;45665;-92
2022/08/21 08:34:24;;;;;;;;;7.75;7.25;;;;;22.60;61.77;101075.28;5083809;27;44972;-88
2022/08/21 08:36:49;;;;;;;;;7.00;6.00;;;;;22.81;61.81;101092.06;5090110;27;45083;-92
2022/08/21 08:39:15;;;;;;;;;7.25;7.00;;;;;22.77;61.76;101083.16;5108070;27;45138;-91
2022/08/21 08:41:42;;;;;;;;;6.00;5.50;;;;;22.79;61.50;101075.09;5089260;27;45171;-92
2022/08/21 08:44:08;;;;;;;;;5.25;5.25;;;;;22.75;60.50;101058.16;5091845;28;45481;-88
2022/08/21 08:46:44;;;;;;;;;7.25;6.00;;;;;23.02;60.99;101097.22;5092283;27;45064;-92
2022/08/21 08:49:15;;;;;;;;;6.00;6.00;;;;;22.89;60.72;101075.00;5087399;27;45219;-90
2022/08/21 08:52:01;;;;;;;;;6.00;6.00;;;;;23.01;61.53;101097.25;5092341;27;46679;-93
2022/08/21 08:54:37;;;;;;;;;6.50;5.50;;;;;22.97;60.46;101091.03;5104109;27;45249;-89
2022/08/21 08:57:08;;;;;;;;;7.00;5.50;;;;;22.95;61.33;101092.81;5086684;27;45228;-92
2022/08/21 08:59:49;;;;;;;;;6.25;6.00;;;;;22.83;60.78;101074.19;5105412;27;45057;-88
2022/08/21 09:02:16;;;;;;;;;5.25;5.25;;;;;23.00;61.58;101093.66;5089857;28;45586;-92
2022/08/21 09:04:43;;;;;;;;;6.00;5.50;;;;;23.03;60.51;101092.75;5092082;27;44989;-90
2022/08/21 09:07:38;;;;;;;;;4.25;4.25;;;;;23.09;60.61;101084.63;5086435;27;45029;-90
2022/08/21 09:10:20;;;;;;;;;6.75;6.00;;;;;23.15;60.07;101080.09;5107160;27;45260;-89
2022/08/21 09:13:18;;;;;;;;;6.50;6.00;;;;;23.25;60.74;101077.28;5087804;27;46309;-90
2022/08/21 09:15:55;;;;;;;;;6.00;6.00;;;;;23.36;59.44;101078.06;5081645;27;45223;-90
2022/08/21 09:18:35;;;;;;;;;7.25;6.00;;;;;23.04;59.05;100993.53;5105498;27;45428;-92
2022/08/21 09:21:09;;;;;;;;;6.75;6.50;;;;;23.58;60.46;101068.81;5107133;27;44947;-92
2022/08/21 09:23:43;;;;;;;;;5.50;5.50;;;;;23.71;59.23;101066.00;5091326;27;45293;-90
2022/08/21 09:26:23;;;;;;;;;6.25;5.50;;;;;23.75;57.93;101062.38;5087741;27;45371;-91
2022/08/21 09:28:55;;;;;;;;;5.25;5.25;;;;;23.50;58.35;101014.38;5111392;27;45189;-92
2022/08/21 09:31:30;;;;;;;;;7.50;6.75;;;;;23.55;59.13;101038.47;5091648;27;45009;-90
2022/08/21 09:34:06;;;;;;;;;5.75;5.75;;;;;23.63;58.72;101056.25;5094757;27;45519;-86
2022/08/21 09:36:37;;;;;;;;;6.50;5.50;;;;;23.38;59.24;101036.00;5093255;27;45063;-87
2022/08/21 09:39:04;;;;;;;;;7.00;5.00;;;;;23.51;57.89;101064.44;5095081;28;45016;-89
2022/08/21 09:41:33;;;;;;;;;6.50;5.00;;;;;23.49;58.03;101068.94;5089895;28;44919;-89
2022/08/21 09:43:59;;;;;;;;;6.50;6.50;;;;;23.26;57.60;101031.69;5094505;27;45391;-93
2022/08/21 09:46:26;;;;;;;;;6.00;5.50;;;;;23.39;57.66;101051.19;5092162;27;45158;-88
2022/08/21 09:48:55;;;;;;;;;7.25;5.25;;;;;23.55;58.39;101062.63;5093691;28;45118;-91
2022/08/21 09:51:24;;;;;;;;;7.00;7.00;;;;;23.64;58.13;101066.09;5088075;27;45964;-91
2022/08/21 09:54:00;;;;;;;;;9.25;7.00;;;;;23.68;56.85;101050.81;5094356;27;45620;-91
2022/08/21 09:59:32;;;;;;;;;5.00;4.25;;;;;24.04;56.67;101064.59;5093241;28;45088;-91
2022/08/21 10:02:01;;;;;;;;;6.00;5.00;;;;;24.12;56.97;101055.50;5089840;27;44867;-92
2022/08/21 10:04:35;;;;;;;;;4.75;4.75;;;;;24.27;56.84;101043.59;5090780;27;45661;-91
2022/08/21 10:07:09;;;;;;;;;6.00;6.00;;;;;24.19;56.50;101013.34;5108887;27;45565;-90
2022/08/21 10:09:34;;;;;;;;;4.00;4.00;;;;;24.29;55.30;101020.31;5090922;27;45332;-92
2022/08/21 10:12:03;;;;;;;;;5.00;4.00;;;;;24.50;55.11;101031.63;5091827;27;45380;-92
2022/08/21 10:14:48;;;;;;;;;5.00;4.00;;;;;24.59;55.25;101016.22;5091763;27;45331;-90
2022/08/21 10:17:24;;;;;;;;;6.25;5.75;;;;;24.77;55.80;101027.50;5110131;27;45520;-92
2022/08/21 10:20:11;;;;;;;;;3.75;3.75;;;;;24.84;54.01;101023.81;5094780;28;45123;-90
2022/08/21 10:23:13;;;;;;;;;5.00;4.00;;;;;24.89;54.28;101022.78;5102700;27;45295;-92
2022/08/21 10:25:52;;;;;;;;;5.00;4.50;;;;;24.78;54.64;100992.56;5089351;27;46105;-91
2022/08/21 10:28:22;;;;;;;;;4.00;3.50;;;;;24.97;54.12;101014.56;5091716;27;45281;-91
2022/08/21 10:31:03;;;;;;;;;3.50;3.50;;;;;25.03;53.10;101010.88;5091623;28;45030;-93
2022/08/21 10:33:47;;;;;;;;;4.00;4.00;;;;;25.05;53.33;100995.56;5091965;27;45242;-90
2022/08/21 10:36:20;;;;;;;;;4.25;4.25;;;;;24.95;52.67;100984.13;5104905;27;46547;-94
2022/08/21 10:39:13;;;;;;;;;3.50;3.25;;;;;25.04;52.61;100997.38;5109144;27;45538;-91
2022/08/21 10:42:09;;;;;;;;;6.00;3.00;;;;;25.06;51.54;101003.59;5090296;27;45130;-92
2022/08/21 10:45:12;;;;;;;;;4.00;3.50;;;;;25.12;51.67;101002.63;5092314;27;45228;-92
2022/08/21 10:47:50;;;;;;;;;2.75;2.75;;;;;24.99;51.40;100958.94;5104998;27;47244;-91
2022/08/21 10:50:34;;;;;;;;;2.75;2.25;;;;;25.19;51.26;100991.72;5092046;27;45135;-90
2022/08/21 10:53:36;;;;;;;;;3.25;3.25;;;;;25.09;52.12;100967.75;5090074;27;45286;-91
2022/08/21 10:56:19;;;;;;;;;3.25;3.00;;;;;25.23;51.35;100971.00;5090655;27;45192;-91
2022/08/21 10:59:06;;;;;;;;;3.50;3.50;;;;;25.45;50.76;100992.94;5091335;27;46948;-88
2022/08/21 11:01:47;;;;;;;;;2.50;2.50;;;;;25.37;51.15;100947.38;5108698;27;45057;-87
2022/08/21 11:04:47;;;;;;;;;3.00;3.00;;;;;25.67;50.81;100978.06;5093830;27;45090;-90
2022/08/21 11:07:22;;;;;;;;;3.25;3.00;;;;;25.73;49.22;100963.56;5080249;28;45620;-90
2022/08/21 11:09:49;;;;;;;;;4.25;4.25;;;;;25.81;50.32;100969.66;5109462;27;47056;-90
2022/08/21 11:12:24;;;;;;;;;3.75;3.50;;;;;25.84;49.96;100972.28;5090220;28;45067;-89
2022/08/21 11:15:19;;;;;;;;;3.00;3.00;;;;;25.77;50.80;100984.13;5091765;27;45236;-92
2022/08/21 11:17:53;;;;;;;;;6.00;5.25;;;;;25.73;50.71;100985.09;5092833;27;45596;-91
2022/08/21 11:21:01;;;;;;;;;4.25;4.25;;;;;25.71;51.17;100997.69;5090633;28;47507;-90
2022/08/21 11:23:37;;;;;;;;;4.00;4.00;;;;;25.71;51.61;100998.59;5089527;28;45070;-93
2022/08/21 11:26:11;;;;;;;;;4.75;4.50;;;;;25.64;51.38;100979.94;5089702;27;45409;-86
2022/08/21 11:28:44;;;;;;;;;4.75;4.00;;;;;25.70;51.48;100972.56;5094065;27;45040;-93
2022/08/21 11:31:21;;;;;;;;;4.25;4.00;;;;;25.88;51.32;100998.22;5105661;27;49164;-88
2022/08/21 11:33:50;;;;;;;;;2.50;2.00;;;;;25.88;50.88;101002.72;5108782;27;45380;-88
2022/08/21 11:36:29;;;;;;;;;4.00;3.75;;;;;25.84;51.12;100983.06;5105975;27;45353;-89
2022/08/21 11:39:21;;;;;;;;;4.00;4.00;;;;;26.04;51.41;101001.41;5091134;28;45187;-89